createdAt,value
2023-04-01T00:02:41.366Z,94027.00
2023-04-01T00:06:41.188Z,94031.00
2023-04-01T00:10:41.237Z,94025.00
2023-04-01T00:14:41.132Z,94027.00
2023-04-01T00:18:41.094Z,94031.00
2023-04-01T00:22:41.241Z,94031.00
2023-04-01T00:26:41.364Z,94020.00
2023-04-01T00:30:41.746Z,94020.00
2023-04-01T00:34:41.326Z,94023.00
2023-04-01T00:38:41.298Z,94027.00
2023-04-01T00:42:41.245Z,94025.00
2023-04-01T00:46:41.240Z,94018.00
2023-04-01T00:50:41.182Z,94022.00
2023-04-01T00:54:41.758Z,94020.00
2023-04-01T00:58:41.114Z,94020.00
2023-04-01T01:02:41.418Z,94014.00
2023-04-01T01:06:41.070Z,94016.00
2023-04-01T01:10:41.284Z,94006.00
2023-04-01T01:14:40.968Z,94010.00
2023-04-01T01:18:40.959Z,94004.00
2023-04-01T01:22:41.271Z,94000.00
2023-04-01T01:26:41.283Z,93998.00
2023-04-01T01:30:41.370Z,93996.00
2023-04-01T01:34:40.793Z,93998.00
2023-04-01T01:38:40.788Z,93996.00
2023-04-01T01:42:40.716Z,93998.00
2023-04-01T01:46:40.816Z,93990.00
2023-04-01T01:50:40.774Z,93984.00
2023-04-01T01:54:40.780Z,93986.00
2023-04-01T01:58:40.702Z,93984.00
2023-04-01T02:02:40.821Z,93982.00
2023-04-01T02:06:41.288Z,93982.00
2023-04-01T02:10:40.931Z,93974.00
2023-04-01T02:14:41.774Z,93970.00
2023-04-01T02:18:41.065Z,93976.00
2023-04-01T02:22:41.281Z,93982.00
2023-04-01T02:26:41.117Z,93990.00
2023-04-01T02:30:41.295Z,93994.00
2023-04-01T02:34:41.289Z,94000.00
2023-04-01T02:38:41.893Z,93996.00
2023-04-01T02:42:41.523Z,93994.00
2023-04-01T02:46:41.884Z,93992.00
2023-04-01T02:50:41.768Z,94010.00
2023-04-01T02:54:41.947Z,94014.00
2023-04-01T02:58:42.289Z,94020.00
2023-04-01T03:02:42.259Z,94025.00
2023-04-01T03:06:42.779Z,94029.00
2023-04-01T03:10:42.563Z,94037.00
2023-04-01T03:14:42.738Z,94039.00
2023-04-01T03:18:43.307Z,94051.00
2023-04-01T03:22:43.235Z,94057.00
2023-04-01T03:26:43.395Z,94057.00
2023-04-01T03:30:43.594Z,94051.00
2023-04-01T03:34:43.530Z,94053.00
2023-04-01T03:38:43.794Z,94059.00
2023-04-01T03:42:43.603Z,94063.00
2023-04-01T03:46:43.971Z,94061.00
2023-04-01T03:50:43.403Z,94059.00
2023-04-01T03:54:43.955Z,94063.00
2023-04-01T03:58:43.390Z,94061.00
2023-04-01T04:02:43.495Z,94057.00
2023-04-01T04:06:43.425Z,94059.00
2023-04-01T04:10:43.231Z,94069.00
2023-04-01T04:14:43.813Z,94065.00
2023-04-01T04:18:43.626Z,94072.00
2023-04-01T04:22:44.304Z,94086.00
2023-04-01T04:26:44.060Z,94092.00
2023-04-01T04:30:44.255Z,94094.00
2023-04-01T04:34:44.810Z,94100.00
2023-04-01T04:38:44.454Z,94102.00
2023-04-01T04:42:44.808Z,94096.00
2023-04-01T04:46:44.474Z,94094.00
2023-04-01T04:50:44.322Z,94106.00
2023-04-01T04:54:44.293Z,94102.00
2023-04-01T04:58:44.271Z,94106.00
2023-04-01T05:02:44.389Z,94104.00
2023-04-01T05:06:44.178Z,94110.00
2023-04-01T05:10:44.391Z,94114.00
2023-04-01T05:14:44.273Z,94131.00
2023-04-01T05:18:44.512Z,94117.00
2023-04-01T05:22:44.841Z,94119.00
2023-04-01T05:26:44.621Z,94121.00
2023-04-01T05:30:44.845Z,94135.00
2023-04-01T05:34:44.855Z,94131.00
2023-04-01T05:38:44.681Z,94133.00
2023-04-01T05:42:44.985Z,94123.00
2023-04-01T05:46:44.708Z,94121.00
2023-04-01T05:50:44.839Z,94121.00
2023-04-01T05:54:44.958Z,94137.00
2023-04-01T05:58:44.941Z,94135.00
2023-04-01T06:02:44.902Z,94143.00
2023-04-01T06:06:44.499Z,94135.00
2023-04-01T06:10:44.506Z,94141.00
2023-04-01T06:14:44.836Z,94143.00
2023-04-01T06:18:44.423Z,94145.00
2023-04-01T06:22:44.512Z,94151.00
2023-04-01T06:26:44.284Z,94157.00
2023-04-01T06:30:44.394Z,94155.00
2023-04-01T06:34:44.362Z,94159.00
2023-04-01T06:38:44.192Z,94153.00
2023-04-01T06:42:44.120Z,94139.00
2023-04-01T06:46:44.346Z,94135.00
2023-04-01T06:50:44.451Z,94123.00
2023-04-01T06:54:44.203Z,94123.00
2023-04-01T06:58:44.869Z,94121.00
2023-04-01T07:02:44.546Z,94131.00
2023-04-01T07:06:44.947Z,94123.00
2023-04-01T07:10:44.892Z,94135.00
2023-04-01T07:14:45.126Z,94123.00
2023-04-01T07:18:44.983Z,94123.00
2023-04-01T07:22:45.003Z,94119.00
2023-04-01T07:26:45.661Z,94121.00
2023-04-01T07:30:45.043Z,94121.00
2023-04-01T07:34:45.430Z,94131.00
2023-04-01T07:38:45.433Z,94139.00
2023-04-01T07:42:45.196Z,94143.00
2023-04-01T07:46:45.501Z,94141.00
2023-04-01T07:50:47.112Z,94145.00
2023-04-01T07:54:44.992Z,94145.00
2023-04-01T07:58:45.337Z,94145.00
2023-04-01T08:02:44.989Z,94149.00
2023-04-01T08:06:44.886Z,94135.00
2023-04-01T08:10:44.896Z,94137.00
2023-04-01T08:14:44.805Z,94123.00
2023-04-01T08:18:44.744Z,94121.00
2023-04-01T08:22:44.875Z,94119.00
2023-04-01T08:26:44.884Z,94112.00
2023-04-01T08:30:44.846Z,94104.00
2023-04-01T08:34:45.486Z,94098.00
2023-04-01T08:38:44.641Z,94096.00
2023-04-01T08:42:44.886Z,94094.00
2023-04-01T08:46:44.963Z,94092.00
2023-04-01T08:50:45.018Z,94098.00
2023-04-01T08:54:44.445Z,94094.00
2023-04-01T08:58:44.415Z,94092.00
2023-04-01T09:02:44.496Z,94092.00
2023-04-01T09:06:44.366Z,94090.00
2023-04-01T09:10:44.378Z,94086.00
2023-04-01T09:14:44.269Z,94080.00
2023-04-01T09:18:44.229Z,94072.00
2023-04-01T09:22:44.408Z,94072.00
2023-04-01T09:26:44.380Z,94053.00
2023-04-01T09:30:44.387Z,94059.00
2023-04-01T09:34:44.396Z,94049.00
2023-04-01T09:38:44.397Z,94043.00
2023-04-01T09:42:44.970Z,94043.00
2023-04-01T09:46:45.060Z,94027.00
2023-04-01T09:50:44.949Z,94029.00
2023-04-01T09:54:44.892Z,94023.00
2023-04-01T09:58:45.022Z,94014.00
2023-04-01T10:02:45.514Z,94010.00
2023-04-01T10:06:45.451Z,94010.00
2023-04-01T10:10:44.918Z,94002.00
2023-04-01T10:14:44.891Z,93996.00
2023-04-01T10:18:44.808Z,94002.00
2023-04-01T10:22:44.970Z,93988.00
2023-04-01T10:26:44.955Z,93980.00
2023-04-01T10:30:44.674Z,93978.00
2023-04-01T10:34:44.672Z,93974.00
2023-04-01T10:38:44.620Z,93974.00
2023-04-01T10:42:44.914Z,93974.00
2023-04-01T10:46:44.939Z,93963.00
2023-04-01T10:50:44.951Z,93955.00
2023-04-01T10:54:44.782Z,93955.00
2023-04-01T10:58:44.824Z,93951.00
2023-04-01T11:02:44.991Z,93945.00
2023-04-01T11:06:45.545Z,93939.00
2023-04-01T11:10:45.112Z,93933.00
2023-04-01T11:14:45.014Z,93925.00
2023-04-01T11:18:44.938Z,93925.00
2023-04-01T11:22:44.975Z,93920.00
2023-04-01T11:26:44.948Z,93921.00
2023-04-01T11:30:44.900Z,93921.00
2023-04-01T11:34:44.807Z,93908.00
2023-04-01T11:38:44.743Z,93910.00
2023-04-01T11:42:44.974Z,93906.00
2023-04-01T11:46:44.754Z,93896.00
2023-04-01T11:50:44.751Z,93896.00
2023-04-01T11:54:45.522Z,93886.00
2023-04-01T11:58:44.584Z,93888.00
2023-04-01T12:02:45.102Z,93890.00
2023-04-01T12:06:45.034Z,93884.00
2023-04-01T12:10:44.506Z,93894.00
2023-04-01T12:14:44.457Z,93890.00
2023-04-01T12:18:44.447Z,93894.00
2023-04-01T12:22:44.525Z,93888.00
2023-04-01T12:26:44.956Z,93888.00
2023-04-01T12:30:44.406Z,93890.00
2023-04-01T12:34:44.445Z,93892.00
2023-04-01T12:38:44.345Z,93904.00
2023-04-01T12:42:44.448Z,93896.00
2023-04-01T12:46:44.382Z,93902.00
2023-04-01T12:50:44.337Z,93910.00
2023-04-01T12:54:44.231Z,93908.00
2023-04-01T12:58:44.454Z,93912.00
2023-04-01T13:02:54.524Z,93923.00
2023-04-01T13:06:44.114Z,93923.00
2023-04-01T13:10:44.071Z,93931.00
2023-04-01T13:14:44.483Z,93939.00
2023-04-01T13:18:43.999Z,93941.00
2023-04-01T13:22:44.077Z,93947.00
2023-04-01T13:26:43.907Z,93947.00
2023-04-01T13:30:43.970Z,93947.00
2023-04-01T13:34:44.545Z,93957.00
2023-04-01T13:38:44.511Z,93951.00
2023-04-01T13:42:46.361Z,93961.00
2023-04-01T13:46:44.486Z,93955.00
2023-04-01T13:50:44.571Z,93959.00
2023-04-01T13:54:45.232Z,93963.00
2023-04-01T13:58:44.785Z,93972.00
2023-04-01T14:02:45.155Z,93968.00
2023-04-01T14:06:45.158Z,93980.00
2023-04-01T14:10:45.254Z,93976.00
2023-04-01T14:14:45.576Z,93967.00
2023-04-01T14:18:45.991Z,93968.00
2023-04-01T14:22:45.735Z,93965.00
2023-04-01T14:26:45.887Z,93967.00
2023-04-01T14:30:46.057Z,93959.00
2023-04-01T14:34:46.110Z,93974.00
2023-04-01T14:38:45.987Z,93978.00
2023-04-01T14:42:46.058Z,93980.00
2023-04-01T14:46:46.507Z,93986.00
2023-04-01T14:50:45.848Z,93990.00
2023-04-01T14:54:46.030Z,94002.00
2023-04-01T14:58:45.997Z,94000.00
2023-04-01T15:02:45.850Z,94002.00
2023-04-01T15:06:46.030Z,94008.00
2023-04-01T15:10:45.680Z,94002.00
2023-04-01T15:14:46.017Z,94004.00
2023-04-01T15:18:45.628Z,94008.00
2023-04-01T15:22:45.699Z,94006.00
2023-04-01T15:26:46.092Z,94008.00
2023-04-01T15:32:59.418Z,94012.00
2023-04-01T15:36:59.242Z,94014.00
2023-04-01T15:40:59.419Z,94016.00
2023-04-01T15:44:59.417Z,94014.00
2023-04-01T15:48:59.008Z,94018.00
2023-04-01T15:52:58.974Z,94023.00
2023-04-01T15:56:59.379Z,94033.00
2023-04-01T16:00:58.961Z,94039.00
2023-04-01T16:04:59.362Z,94033.00
2023-04-01T16:08:58.921Z,94045.00
2023-04-01T16:12:58.763Z,94041.00
2023-04-01T16:16:58.904Z,94039.00
2023-04-01T16:20:58.682Z,94035.00
2023-04-01T16:24:59.462Z,94033.00
2023-04-01T16:28:58.762Z,94035.00
2023-04-01T16:32:58.625Z,94037.00
2023-04-01T16:36:58.618Z,94039.00
2023-04-01T16:40:58.856Z,94041.00
2023-04-01T16:44:58.606Z,94041.00
2023-04-01T16:48:58.837Z,94039.00
2023-04-01T16:52:58.728Z,94041.00
2023-04-01T16:56:58.825Z,94047.00
2023-04-01T17:00:58.859Z,94047.00
2023-04-01T17:04:58.901Z,94043.00
2023-04-01T17:08:59.042Z,94053.00
2023-04-01T17:12:59.380Z,94051.00
2023-04-01T17:16:59.109Z,94055.00
2023-04-01T17:20:59.365Z,94057.00
2023-04-01T17:24:59.061Z,94059.00
2023-04-01T17:28:58.987Z,94063.00
2023-04-01T17:32:59.412Z,94067.00
2023-04-01T17:36:59.354Z,94069.00
2023-04-01T17:40:58.880Z,94070.00
2023-04-01T17:44:58.891Z,94070.00
2023-04-01T17:48:58.814Z,94069.00
2023-04-01T17:52:58.885Z,94072.00
2023-04-01T17:56:58.852Z,94078.00
2023-04-01T18:00:59.711Z,94082.00
2023-04-01T18:04:59.161Z,94088.00
2023-04-01T18:08:59.156Z,94090.00
2023-04-01T18:12:59.116Z,94090.00
2023-04-01T18:16:59.401Z,94098.00
2023-04-01T18:20:59.122Z,94106.00
2023-04-01T18:24:59.377Z,94116.00
2023-04-01T18:28:59.179Z,94119.00
2023-04-01T18:32:59.377Z,94117.00
2023-04-01T18:36:59.498Z,94119.00
2023-04-01T18:40:59.485Z,94135.00
2023-04-01T18:44:59.469Z,94145.00
2023-04-01T18:48:59.546Z,94151.00
2023-04-01T18:52:59.886Z,94153.00
2023-04-01T18:56:59.722Z,94166.00
2023-04-01T19:00:59.923Z,94180.00
2023-04-01T19:04:59.808Z,94186.00
2023-04-01T19:09:00.427Z,94194.00
2023-04-01T19:13:00.218Z,94196.00
2023-04-01T19:17:00.356Z,94194.00
2023-04-01T19:21:00.901Z,94192.00
2023-04-01T19:25:00.496Z,94196.00
2023-04-01T19:29:00.915Z,94206.00
2023-04-01T19:33:00.781Z,94208.00
2023-04-01T19:37:01.444Z,94208.00
2023-04-01T19:41:01.207Z,94208.00
2023-04-01T19:45:01.167Z,94211.00
2023-04-01T19:49:01.405Z,94213.00
2023-04-01T19:53:01.427Z,94225.00
2023-04-01T19:57:01.037Z,94229.00
2023-04-01T20:01:01.493Z,94227.00
2023-04-01T20:05:01.084Z,94233.00
2023-04-01T20:09:01.444Z,94241.00
2023-04-01T20:13:01.405Z,94239.00
2023-04-01T20:17:01.032Z,94237.00
2023-04-01T20:21:00.949Z,94243.00
2023-04-01T20:25:00.806Z,94245.00
2023-04-01T20:29:00.919Z,94247.00
2023-04-01T20:33:00.778Z,94251.00
2023-04-01T20:37:01.003Z,94253.00
2023-04-01T20:41:00.695Z,94253.00
2023-04-01T20:45:00.941Z,94251.00
2023-04-01T20:49:00.643Z,94251.00
2023-04-01T20:53:00.964Z,94251.00
2023-04-01T20:57:00.954Z,94253.00
2023-04-01T21:01:01.006Z,94253.00
2023-04-01T21:05:00.960Z,94257.00
2023-04-01T21:09:01.243Z,94266.00
2023-04-01T21:13:01.646Z,94264.00
2023-04-01T21:17:01.266Z,94266.00
2023-04-01T21:21:01.501Z,94272.00
2023-04-01T21:25:01.482Z,94274.00
2023-04-01T21:29:01.560Z,94276.00
2023-04-01T21:33:01.537Z,94280.00
2023-04-01T21:37:01.518Z,94288.00
2023-04-01T21:41:01.302Z,94288.00
2023-04-01T21:45:01.554Z,94290.00
2023-04-01T21:49:01.446Z,94292.00
2023-04-01T21:53:01.175Z,94298.00
2023-04-01T21:57:01.292Z,94302.00
2023-04-01T22:01:01.559Z,94308.00
2023-04-01T22:05:01.443Z,94315.00
2023-04-01T22:09:01.093Z,94319.00
2023-04-01T22:13:01.446Z,94323.00
2023-04-01T22:17:01.009Z,94327.00
2023-04-01T22:21:01.452Z,94323.00
2023-04-01T22:25:00.933Z,94321.00
2023-04-01T22:29:01.053Z,94327.00
2023-04-01T22:33:00.901Z,94329.00
2023-04-01T22:37:00.850Z,94327.00
2023-04-01T22:41:01.131Z,94325.00
2023-04-01T22:45:00.822Z,94325.00
2023-04-01T22:49:01.105Z,94335.00
2023-04-01T22:53:00.724Z,94339.00
2023-04-01T22:57:00.859Z,94345.00
2023-04-01T23:01:01.077Z,94351.00
2023-04-01T23:05:00.800Z,94351.00
2023-04-01T23:09:01.529Z,94351.00
2023-04-01T23:13:00.861Z,94355.00
2023-04-01T23:17:01.028Z,94358.00
2023-04-01T23:21:02.002Z,94360.00
2023-04-01T23:25:01.399Z,94370.00
2023-04-01T23:29:01.970Z,94372.00
2023-04-01T23:33:01.866Z,94372.00
2023-04-01T23:37:02.004Z,94372.00
2023-04-01T23:41:02.963Z,94374.00
2023-04-01T23:45:02.336Z,94374.00
2023-04-01T23:49:02.973Z,94370.00
2023-04-01T23:53:02.828Z,94374.00
2023-04-01T23:57:03.524Z,94378.00
